createdAt,value
2022-08-25T00:00:20.428Z,18.20
2022-08-25T00:02:55.406Z,17.10
2022-08-25T00:05:29.154Z,15.90
2022-08-25T00:07:59.522Z,17.58
2022-08-25T00:10:27.827Z,18.52
2022-08-25T00:12:56.311Z,19.42
2022-08-25T00:15:24.896Z,15.90
2022-08-25T00:17:53.138Z,15.93
2022-08-25T00:20:22.529Z,16.02
2022-08-25T00:22:50.867Z,15.65
2022-08-25T00:25:20.975Z,14.80
2022-08-25T00:27:49.193Z,16.55
2022-08-25T00:30:18.142Z,16.00
2022-08-25T00:32:50.472Z,19.25
2022-08-25T00:35:24.519Z,19.20
2022-08-25T00:37:52.715Z,21.55
2022-08-25T00:40:23.633Z,21.77
2022-08-25T00:42:51.966Z,20.42
2022-08-25T00:45:20.729Z,20.60
2022-08-25T00:47:49.164Z,18.65
2022-08-25T00:50:18.448Z,17.55
2022-08-25T00:52:50.765Z,19.50
2022-08-25T00:55:24.764Z,18.10
2022-08-25T00:57:57.480Z,19.55
2022-08-25T01:00:30.521Z,21.40
2022-08-25T01:02:59.165Z,24.08
2022-08-25T01:05:28.347Z,20.27
2022-08-25T01:07:59.471Z,19.67
2022-08-25T01:10:31.049Z,19.13
2022-08-25T01:13:06.382Z,18.60
2022-08-25T01:15:38.785Z,19.50
2022-08-25T01:18:07.144Z,19.42
2022-08-25T01:20:35.664Z,19.05
2022-08-25T01:23:05.777Z,19.55
2022-08-25T01:25:44.525Z,18.75
2022-08-25T01:28:13.394Z,18.23
2022-08-25T01:30:42.287Z,19.60
2022-08-25T01:33:12.916Z,18.58
2022-08-25T01:35:42.012Z,18.67
2022-08-25T01:38:11.774Z,22.95
2022-08-25T01:40:41.261Z,22.48
2022-08-25T01:43:18.206Z,20.73
2022-08-25T01:45:49.078Z,21.95
2022-08-25T01:48:18.140Z,19.20
2022-08-25T01:50:46.924Z,18.63
2022-08-25T01:53:24.825Z,20.30
2022-08-25T01:55:55.388Z,17.55
2022-08-25T01:58:25.321Z,18.60
2022-08-25T02:00:56.742Z,22.80
2022-08-25T02:03:26.527Z,22.92
2022-08-25T02:05:55.335Z,21.23
2022-08-25T02:08:25.459Z,20.20
2022-08-25T02:10:55.354Z,21.05
2022-08-25T02:13:26.820Z,21.05
2022-08-25T02:16:01.892Z,20.20
2022-08-25T02:18:30.223Z,19.55
2022-08-25T02:20:58.619Z,30.13
2022-08-25T02:23:28.449Z,29.17
2022-08-25T02:25:57.470Z,22.13
2022-08-25T02:28:26.733Z,20.60
2022-08-25T02:30:58.784Z,21.27
2022-08-25T02:33:30.252Z,19.23
2022-08-25T02:36:00.430Z,20.48
2022-08-25T02:38:30.648Z,25.33
2022-08-25T02:41:00.560Z,19.58
2022-08-25T02:43:29.883Z,22.60
2022-08-25T02:45:59.409Z,21.98
2022-08-25T02:48:28.265Z,20.48
2022-08-25T02:50:56.471Z,20.55
2022-08-25T02:53:24.731Z,20.02
2022-08-25T02:55:54.528Z,20.25
2022-08-25T02:58:23.828Z,21.52
2022-08-25T03:00:52.351Z,27.10
2022-08-25T03:03:21.664Z,22.48
2022-08-25T03:05:49.992Z,24.65
2022-08-25T03:08:18.670Z,25.55
2022-08-25T03:10:47.446Z,23.55
2022-08-25T03:13:18.017Z,22.50
2022-08-25T03:15:46.476Z,23.35
2022-08-25T03:18:17.665Z,23.38
2022-08-25T03:20:46.077Z,23.05
2022-08-25T03:23:14.288Z,23.60
2022-08-25T03:26:00.722Z,23.75
2022-08-25T03:28:33.190Z,23.45
2022-08-25T03:31:02.269Z,23.50
2022-08-25T03:33:31.363Z,23.25
2022-08-25T03:36:00.360Z,22.60
2022-08-25T03:38:29.781Z,25.88
2022-08-25T03:40:58.191Z,24.25
2022-08-25T03:43:26.375Z,24.10
2022-08-25T03:45:56.052Z,23.35
2022-08-25T03:48:24.291Z,22.65
2022-08-25T03:50:54.825Z,23.10
2022-08-25T03:53:24.013Z,25.35
2022-08-25T03:55:52.271Z,21.77
2022-08-25T03:58:20.489Z,21.20
2022-08-25T04:00:48.819Z,24.15
2022-08-25T04:03:19.323Z,26.25
2022-08-25T04:05:47.631Z,24.48
2022-08-25T04:08:16.027Z,22.58
2022-08-25T04:10:48.212Z,23.75
2022-08-25T04:13:16.449Z,24.05
2022-08-25T04:15:45.738Z,22.85
2022-08-25T04:18:14.168Z,26.85
2022-08-25T04:20:46.749Z,23.35
2022-08-25T04:23:15.248Z,27.10
2022-08-25T04:25:43.516Z,25.95
2022-08-25T04:28:14.500Z,26.45
2022-08-25T04:30:45.180Z,24.45
2022-08-25T04:33:15.573Z,24.50
2022-08-25T04:35:48.953Z,24.90
2022-08-25T04:38:17.201Z,24.48
2022-08-25T04:40:45.502Z,25.40
2022-08-25T04:43:13.753Z,29.65
2022-08-25T04:45:42.224Z,26.05
2022-08-25T04:48:10.459Z,24.50
2022-08-25T04:50:40.349Z,25.25
2022-08-25T04:53:10.184Z,24.95
2022-08-25T04:55:42.329Z,24.85
2022-08-25T04:58:14.849Z,25.27
2022-08-25T05:00:46.668Z,24.73
2022-08-25T05:03:15.511Z,25.00
2022-08-25T05:05:43.793Z,23.50
2022-08-25T05:08:13.345Z,25.73
2022-08-25T05:10:43.213Z,23.10
2022-08-25T05:13:12.045Z,23.65
2022-08-25T05:15:58.247Z,22.02
2022-08-25T05:18:30.147Z,22.10
2022-08-25T05:21:02.479Z,24.70
2022-08-25T05:23:30.766Z,23.23
2022-08-25T05:26:04.268Z,21.63
2022-08-25T05:28:33.805Z,19.92
2022-08-25T05:31:05.335Z,23.30
2022-08-25T05:33:34.402Z,21.30
2022-08-25T05:36:02.601Z,20.50
2022-08-25T05:38:31.021Z,19.97
2022-08-25T05:40:59.963Z,20.20
2022-08-25T05:43:28.814Z,19.73
2022-08-25T05:45:58.271Z,20.87
2022-08-25T05:48:28.715Z,21.07
2022-08-25T05:50:59.790Z,19.03
2022-08-25T05:53:29.876Z,22.40
2022-08-25T05:56:02.212Z,18.73
2022-08-25T05:58:31.590Z,19.70
2022-08-25T06:01:21.252Z,19.70
2022-08-25T06:03:53.986Z,16.90
2022-08-25T06:06:22.824Z,14.27
2022-08-25T06:08:51.522Z,14.17
2022-08-25T06:11:20.308Z,12.87
2022-08-25T06:13:48.588Z,12.60
2022-08-25T06:16:16.770Z,13.10
2022-08-25T06:18:45.027Z,13.40
2022-08-25T06:21:16.966Z,13.27
2022-08-25T06:23:45.548Z,14.07
2022-08-25T06:26:21.079Z,12.93
2022-08-25T06:28:50.787Z,15.27
2022-08-25T06:31:19.573Z,14.80
2022-08-25T06:33:47.826Z,15.73
2022-08-25T06:36:17.429Z,17.23
2022-08-25T06:38:46.233Z,12.60
2022-08-25T06:41:14.685Z,15.23
2022-08-25T06:43:48.041Z,12.60
2022-08-25T06:46:19.725Z,13.73
2022-08-25T06:48:48.416Z,16.10
2022-08-25T06:51:20.171Z,13.80
2022-08-25T06:53:50.076Z,14.43
2022-08-25T06:56:20.207Z,13.90
2022-08-25T06:58:49.542Z,15.00
2022-08-25T07:01:22.264Z,14.60
2022-08-25T07:03:52.703Z,15.97
2022-08-25T07:06:22.307Z,15.00
2022-08-25T07:08:50.700Z,15.60
2022-08-25T07:11:21.447Z,15.50
2022-08-25T07:13:50.683Z,16.27
2022-08-25T07:16:21.164Z,14.67
2022-08-25T07:18:50.013Z,14.27
2022-08-25T07:21:21.705Z,14.10
2022-08-25T07:23:54.047Z,12.27
2022-08-25T07:26:37.362Z,14.13
2022-08-25T07:29:08.519Z,14.50
2022-08-25T07:31:37.528Z,14.17
2022-08-25T07:34:23.364Z,14.80
2022-08-25T07:36:51.488Z,15.13
2022-08-25T07:39:22.171Z,14.17
2022-08-25T07:41:52.400Z,12.53
2022-08-25T07:44:21.371Z,13.90
2022-08-25T07:46:50.587Z,12.50
2022-08-25T07:49:23.278Z,13.57
2022-08-25T07:52:03.984Z,13.97
2022-08-25T07:54:38.034Z,14.70
2022-08-25T07:57:08.819Z,15.20
2022-08-25T07:59:40.643Z,15.73
2022-08-25T08:02:18.184Z,15.07
2022-08-25T08:04:49.597Z,15.50
2022-08-25T08:07:19.613Z,15.30
2022-08-25T08:09:56.093Z,12.33
2022-08-25T08:12:34.760Z,14.73
2022-08-25T08:15:04.412Z,13.33
2022-08-25T08:17:40.306Z,13.13
2022-08-25T08:20:10.035Z,12.10
2022-08-25T08:22:41.020Z,14.43
2022-08-25T08:25:18.763Z,14.90
2022-08-25T08:27:50.889Z,14.53
2022-08-25T08:30:25.927Z,15.60
2022-08-25T08:33:12.033Z,15.17
2022-08-25T08:35:40.928Z,13.23
2022-08-25T08:38:14.821Z,14.67
2022-08-25T08:41:15.836Z,13.40
2022-08-25T08:43:46.467Z,12.53
2022-08-25T08:46:15.726Z,14.00
2022-08-25T08:48:57.498Z,12.33
2022-08-25T08:51:32.821Z,12.60
2022-08-25T08:54:14.887Z,12.57
2022-08-25T08:56:48.584Z,11.07
2022-08-25T08:59:20.251Z,11.17
2022-08-25T09:01:54.488Z,10.37
2022-08-25T09:04:30.110Z,11.70
2022-08-25T09:07:01.512Z,10.23
2022-08-25T09:09:35.961Z,11.00
2022-08-25T09:12:13.537Z,10.57
2022-08-25T09:14:59.047Z,11.30
2022-08-25T09:17:43.967Z,9.80
2022-08-25T09:20:46.989Z,10.60
2022-08-25T09:23:26.592Z,9.13
2022-08-25T09:26:04.233Z,8.13
2022-08-25T09:28:39.864Z,8.97
2022-08-25T09:31:18.798Z,10.90
2022-08-25T09:33:47.651Z,10.77
2022-08-25T09:36:16.211Z,11.50
2022-08-25T09:38:48.143Z,11.60
2022-08-25T09:41:19.509Z,11.83
2022-08-25T09:43:55.088Z,13.97
2022-08-25T09:46:27.117Z,12.10
2022-08-25T09:48:57.681Z,11.90
2022-08-25T09:51:29.281Z,11.20
2022-08-25T09:54:19.776Z,10.43
2022-08-25T09:56:52.648Z,10.67
2022-08-25T09:59:34.213Z,10.40
2022-08-25T10:02:06.315Z,10.60
2022-08-25T10:04:37.545Z,10.10
2022-08-25T10:07:21.547Z,10.30
2022-08-25T10:09:55.187Z,9.93
2022-08-25T10:12:27.700Z,9.27
2022-08-25T10:14:57.810Z,9.70
2022-08-25T10:17:29.895Z,11.43
2022-08-25T10:20:17.189Z,9.03
2022-08-25T10:22:46.210Z,9.00
2022-08-25T10:25:22.180Z,9.37
2022-08-25T10:28:02.012Z,8.63
2022-08-25T10:30:37.635Z,10.47
2022-08-25T10:33:20.642Z,9.17
2022-08-25T10:36:00.119Z,8.90
2022-08-25T10:38:38.650Z,8.87
2022-08-25T10:41:28.635Z,7.83
2022-08-25T10:44:29.747Z,8.60
2022-08-25T10:47:12.296Z,9.50
2022-08-25T10:49:46.988Z,8.23
2022-08-25T10:52:24.951Z,7.70
2022-08-25T10:54:59.228Z,9.23
2022-08-25T10:57:35.828Z,8.33
2022-08-25T11:00:09.143Z,8.17
2022-08-25T11:03:11.225Z,8.23
2022-08-25T11:05:43.982Z,8.27
2022-08-25T11:08:17.814Z,7.97
2022-08-25T11:10:50.811Z,8.07
2022-08-25T11:13:31.701Z,7.27
2022-08-25T11:16:17.139Z,8.00
2022-08-25T11:18:55.361Z,7.57
2022-08-25T11:21:29.771Z,7.70
2022-08-25T11:24:05.908Z,8.00
2022-08-25T11:26:40.636Z,8.50
2022-08-25T11:29:14.427Z,8.90
2022-08-25T11:31:53.892Z,8.80
2022-08-25T11:34:24.869Z,8.50
2022-08-25T11:36:57.649Z,8.23
2022-08-25T11:39:42.419Z,7.40
2022-08-25T11:42:22.803Z,7.70
2022-08-25T11:45:03.498Z,7.80
2022-08-25T11:47:49.613Z,9.20
2022-08-25T11:50:32.806Z,8.93
2022-08-25T11:53:26.804Z,9.23
2022-08-25T11:56:02.536Z,8.47
2022-08-25T11:58:40.620Z,8.80
2022-08-25T12:01:12.725Z,8.23
2022-08-25T12:03:52.303Z,7.80
2022-08-25T12:06:26.735Z,9.20
2022-08-25T12:09:20.316Z,8.83
2022-08-25T12:11:55.073Z,8.67
2022-08-25T12:14:44.692Z,8.40
2022-08-25T12:17:39.639Z,10.90
2022-08-25T12:20:09.018Z,10.30
2022-08-25T12:23:01.400Z,9.57
2022-08-25T12:25:50.289Z,10.43
2022-08-25T12:28:46.000Z,10.73
2022-08-25T12:31:27.450Z,11.13
2022-08-25T12:34:10.650Z,9.90
2022-08-25T12:36:42.699Z,10.60
2022-08-25T12:39:19.802Z,10.13
2022-08-25T12:41:56.519Z,9.87
2022-08-25T12:44:43.582Z,9.60
2022-08-25T12:47:31.850Z,9.00
2022-08-25T12:50:40.034Z,9.87
2022-08-25T12:53:13.496Z,11.10
2022-08-25T12:55:48.381Z,10.37
2022-08-25T12:58:17.094Z,9.70
2022-08-25T13:01:17.605Z,10.73
2022-08-25T13:04:23.648Z,9.83
2022-08-25T13:07:06.200Z,10.27
2022-08-25T13:10:08.911Z,9.30
2022-08-25T13:12:45.295Z,9.60
2022-08-25T13:15:15.604Z,9.43
2022-08-25T13:17:43.802Z,10.80
2022-08-25T13:20:23.819Z,9.63
2022-08-25T13:22:57.533Z,8.87
2022-08-25T13:25:32.180Z,9.10
2022-08-25T13:28:06.509Z,8.73
2022-08-25T13:30:40.032Z,9.27
2022-08-25T13:33:20.350Z,8.60
2022-08-25T13:35:50.231Z,9.10
2022-08-25T13:38:19.969Z,9.27
2022-08-25T13:40:48.288Z,8.83
2022-08-25T13:43:18.180Z,9.47
2022-08-25T13:45:56.720Z,9.50
2022-08-25T13:48:35.058Z,9.20
2022-08-25T13:51:18.664Z,8.00
2022-08-25T13:53:54.892Z,9.93
2022-08-25T13:56:38.016Z,9.07
2022-08-25T13:59:28.496Z,9.20
2022-08-25T14:01:57.363Z,9.00
2022-08-25T14:04:32.956Z,10.80
2022-08-25T14:07:19.653Z,11.83
2022-08-25T14:09:52.703Z,10.10
2022-08-25T14:12:39.935Z,10.43
2022-08-25T14:15:14.881Z,10.90
2022-08-25T14:20:28.666Z,11.83
2022-08-25T14:23:00.484Z,11.07
2022-08-25T14:25:31.563Z,11.50
2022-08-25T14:28:10.776Z,11.33
2022-08-25T14:30:47.245Z,12.03
2022-08-25T14:33:17.830Z,12.20
2022-08-25T14:35:50.135Z,12.80
2022-08-25T14:38:20.899Z,11.93
2022-08-25T14:40:50.212Z,12.63
2022-08-25T14:43:23.740Z,13.20
2022-08-25T14:45:54.366Z,13.27
2022-08-25T14:48:27.723Z,12.80
2022-08-25T14:50:57.864Z,13.77
2022-08-25T14:53:26.499Z,12.50
2022-08-25T14:55:58.813Z,13.90
2022-08-25T14:58:27.875Z,15.10
2022-08-25T15:01:06.169Z,13.67
2022-08-25T15:03:38.815Z,15.43
2022-08-25T15:06:07.767Z,15.90
2022-08-25T15:08:56.952Z,15.30
2022-08-25T15:11:25.624Z,15.50
2022-08-25T15:13:54.576Z,16.77
2022-08-25T15:16:33.745Z,15.30
2022-08-25T15:19:06.633Z,14.20
2022-08-25T15:21:35.797Z,14.80
2022-08-25T15:24:04.523Z,14.20
2022-08-25T15:26:35.495Z,14.50
2022-08-25T15:29:05.065Z,16.23
2022-08-25T15:31:34.648Z,14.87
2022-08-25T15:34:02.820Z,16.53
2022-08-25T15:36:31.303Z,14.40
2022-08-25T15:38:59.424Z,15.37
2022-08-25T15:41:29.466Z,15.43
2022-08-25T15:43:59.624Z,17.57
2022-08-25T15:46:30.242Z,15.53
2022-08-25T15:49:00.263Z,15.30
2022-08-25T15:51:28.980Z,15.87
2022-08-25T15:53:57.901Z,15.30
2022-08-25T15:56:27.237Z,15.50
2022-08-25T15:58:56.494Z,15.97
2022-08-25T16:01:26.794Z,14.27
2022-08-25T16:03:55.235Z,15.67
2022-08-25T16:06:26.482Z,16.03
2022-08-25T16:08:55.652Z,16.93
2022-08-25T16:11:25.816Z,16.20
2022-08-25T16:13:55.515Z,14.90
2022-08-25T16:16:26.188Z,15.80
2022-08-25T16:18:55.007Z,15.73
2022-08-25T16:21:29.041Z,17.23
2022-08-25T16:24:02.642Z,15.63
2022-08-25T16:26:35.209Z,15.43
2022-08-25T16:29:04.147Z,15.20
2022-08-25T16:31:34.819Z,16.50
2022-08-25T16:34:03.140Z,15.90
2022-08-25T16:36:32.751Z,15.27
2022-08-25T16:39:01.740Z,16.50
2022-08-25T16:41:34.223Z,16.17
2022-08-25T16:44:07.719Z,15.43
2022-08-25T16:46:40.784Z,15.50
2022-08-25T16:49:10.409Z,15.93
2022-08-25T16:51:40.783Z,14.40
2022-08-25T16:54:43.484Z,14.90
2022-08-25T16:57:12.596Z,14.43
2022-08-25T16:59:42.504Z,15.13
2022-08-25T17:02:12.154Z,14.70
2022-08-25T17:04:41.006Z,14.80
2022-08-25T17:07:10.612Z,13.93
2022-08-25T17:09:38.848Z,14.47
2022-08-25T17:12:09.265Z,14.10
2022-08-25T17:14:37.457Z,13.10
2022-08-25T17:17:07.225Z,13.70
2022-08-25T17:19:35.516Z,14.50
2022-08-25T17:22:03.627Z,12.90
2022-08-25T17:24:36.294Z,12.67
2022-08-25T17:27:08.675Z,13.43
2022-08-25T17:29:36.888Z,12.27
2022-08-25T17:32:06.059Z,12.33
2022-08-25T17:34:35.668Z,12.13
2022-08-25T17:37:03.886Z,13.00
2022-08-25T17:39:35.532Z,13.13
2022-08-25T17:42:03.681Z,11.57
2022-08-25T17:44:31.919Z,12.60
2022-08-25T17:47:01.105Z,12.97
2022-08-25T17:49:29.359Z,14.27
2022-08-25T17:51:58.903Z,13.27
2022-08-25T17:54:27.171Z,13.23
2022-08-25T17:56:58.163Z,13.53
2022-08-25T17:59:27.712Z,14.90
2022-08-25T18:02:01.028Z,15.10
2022-08-25T18:04:29.539Z,13.43
2022-08-25T18:06:58.615Z,14.60
2022-08-25T18:09:26.771Z,16.27
2022-08-25T18:11:56.495Z,15.20
2022-08-25T18:14:25.745Z,17.03
2022-08-25T18:16:54.443Z,15.73
2022-08-25T18:19:22.631Z,15.83
2022-08-25T18:21:52.456Z,15.60
2022-08-25T18:24:20.967Z,15.90
2022-08-25T18:26:51.943Z,15.47
2022-08-25T18:29:22.135Z,16.90
2022-08-25T18:31:54.290Z,15.57
2022-08-25T18:34:25.443Z,17.00
2022-08-25T18:36:53.579Z,16.40
2022-08-25T18:39:39.065Z,17.33
2022-08-25T18:42:08.485Z,17.47
2022-08-25T18:44:38.343Z,16.80
2022-08-25T18:47:07.673Z,20.80
2022-08-25T18:49:37.136Z,17.80
2022-08-25T18:52:07.463Z,20.47
2022-08-25T18:54:36.318Z,17.03
2022-08-25T18:57:04.915Z,18.30
2022-08-25T18:59:38.725Z,17.67
2022-08-25T19:02:10.001Z,16.77
2022-08-25T19:04:41.546Z,17.67
2022-08-25T19:07:10.288Z,17.33
2022-08-25T19:09:38.619Z,17.20
2022-08-25T19:12:07.291Z,16.87
2022-08-25T19:14:41.860Z,18.00
2022-08-25T19:17:10.446Z,18.40
2022-08-25T19:19:38.675Z,17.90
2022-08-25T19:22:16.659Z,19.07
2022-08-25T19:24:55.773Z,19.57
2022-08-25T19:27:24.764Z,19.90
2022-08-25T19:29:54.408Z,22.10
2022-08-25T19:32:22.620Z,19.00
2022-08-25T19:34:54.807Z,19.00
2022-08-25T19:37:27.323Z,19.17
2022-08-25T19:39:57.435Z,19.50
2022-08-25T19:42:36.977Z,19.47
2022-08-25T19:45:10.130Z,19.60
2022-08-25T19:47:38.650Z,19.40
2022-08-25T19:50:07.686Z,19.30
2022-08-25T19:52:36.490Z,19.70
2022-08-25T19:55:05.877Z,20.10
2022-08-25T19:57:42.270Z,22.40
2022-08-25T20:00:16.623Z,21.90
2022-08-25T20:02:45.108Z,22.60
2022-08-25T20:05:13.632Z,21.30
2022-08-25T20:07:42.256Z,24.60
2022-08-25T20:10:14.047Z,23.27
2022-08-25T20:12:44.707Z,21.83
2022-08-25T20:15:17.259Z,22.20
2022-08-25T20:17:46.244Z,22.80
2022-08-25T20:20:18.337Z,21.27
2022-08-25T20:22:47.759Z,24.50
2022-08-25T20:25:17.604Z,24.87
2022-08-25T20:27:49.437Z,25.50
2022-08-25T20:30:23.018Z,25.33
2022-08-25T20:32:51.540Z,26.40
2022-08-25T20:35:20.884Z,23.03
2022-08-25T20:37:56.133Z,25.57
2022-08-25T20:40:26.199Z,25.90
2022-08-25T20:42:54.842Z,25.30
2022-08-25T20:45:24.812Z,23.57
2022-08-25T20:47:53.043Z,24.70
2022-08-25T20:50:22.858Z,25.30
2022-08-25T20:52:52.146Z,23.47
2022-08-25T20:55:20.563Z,23.60
2022-08-25T20:57:49.382Z,22.93
2022-08-25T21:00:19.472Z,22.97
2022-08-25T21:02:54.976Z,24.40
2022-08-25T21:05:23.346Z,23.00
2022-08-25T21:07:51.552Z,24.00
2022-08-25T21:10:19.886Z,25.20
2022-08-25T21:12:49.426Z,25.20
2022-08-25T21:15:21.923Z,24.77
2022-08-25T21:17:51.368Z,24.50
2022-08-25T21:20:21.993Z,22.80
2022-08-25T21:22:50.575Z,23.13
2022-08-25T21:25:19.061Z,23.17
2022-08-25T21:27:48.040Z,21.40
2022-08-25T21:30:17.595Z,22.97
2022-08-25T21:32:53.757Z,23.83
2022-08-25T21:35:24.076Z,23.80
2022-08-25T21:37:53.685Z,25.43
2022-08-25T21:40:22.638Z,24.77
2022-08-25T21:42:51.456Z,28.80
2022-08-25T21:45:20.965Z,26.97
2022-08-25T21:47:51.766Z,25.30
2022-08-25T21:50:21.026Z,23.30
2022-08-25T21:52:54.597Z,28.60
2022-08-25T21:55:23.243Z,27.20
2022-08-25T21:57:51.570Z,25.97
2022-08-25T22:00:21.347Z,27.20
2022-08-25T22:02:49.739Z,25.90
2022-08-25T22:05:18.087Z,25.13
2022-08-25T22:07:46.268Z,24.30
2022-08-25T22:10:17.859Z,23.57
2022-08-25T22:12:47.177Z,29.37
2022-08-25T22:15:18.025Z,29.47
2022-08-25T22:17:48.131Z,28.17
2022-08-25T22:20:17.556Z,28.70
2022-08-25T22:22:45.824Z,25.07
2022-08-25T22:25:15.824Z,25.07
2022-08-25T22:27:44.532Z,25.93
2022-08-25T22:30:14.488Z,24.80
2022-08-25T22:32:42.987Z,23.80
2022-08-25T22:35:13.908Z,25.53
2022-08-25T22:37:42.881Z,22.73
2022-08-25T22:40:12.424Z,24.20
2022-08-25T22:42:47.383Z,23.67
2022-08-25T22:45:16.167Z,24.80
2022-08-25T22:47:45.277Z,23.33
2022-08-25T22:50:14.325Z,23.13
2022-08-25T22:52:45.608Z,23.67
2022-08-25T22:55:14.017Z,27.43
2022-08-25T22:57:46.193Z,31.93
2022-08-25T23:00:16.136Z,28.67
2022-08-25T23:02:45.275Z,27.63
2022-08-25T23:05:14.805Z,26.97
2022-08-25T23:07:43.285Z,26.30
2022-08-25T23:10:13.585Z,24.60
2022-08-25T23:12:44.022Z,25.20
2022-08-25T23:15:14.987Z,24.27
2022-08-25T23:17:43.172Z,25.70
2022-08-25T23:20:25.797Z,25.37
2022-08-25T23:22:54.431Z,27.83
2022-08-25T23:25:23.002Z,29.60
2022-08-25T23:27:52.123Z,26.20
2022-08-25T23:30:21.922Z,25.30
2022-08-25T23:32:50.187Z,25.10
2022-08-25T23:35:19.371Z,23.50
2022-08-25T23:37:48.452Z,26.50
2022-08-25T23:40:19.318Z,25.17
2022-08-25T23:42:47.774Z,24.10
2022-08-25T23:45:16.961Z,23.20
2022-08-25T23:47:46.573Z,22.97
2022-08-25T23:50:17.980Z,22.53
2022-08-25T23:52:46.431Z,22.70
2022-08-25T23:55:14.651Z,22.20
2022-08-25T23:57:43.885Z,24.50
